sensor_id;sensor_type;location;lat;lon;timestamp;temperature;humidity
14585;DHT22;7379;51.506;11.876;2023-04-09T00:01:25;9.20;67.40
14585;DHT22;7379;51.506;11.876;2023-04-09T00:03:52;9.20;67.40
14585;DHT22;7379;51.506;11.876;2023-04-09T00:06:18;9.20;68.10
14585;DHT22;7379;51.506;11.876;2023-04-09T00:08:45;9.20;67.30
14585;DHT22;7379;51.506;11.876;2023-04-09T00:11:12;9.20;67.30
14585;DHT22;7379;51.506;11.876;2023-04-09T00:13:39;9.20;67.30
14585;DHT22;7379;51.506;11.876;2023-04-09T00:16:06;9.20;67.30
14585;DHT22;7379;51.506;11.876;2023-04-09T00:18:35;9.20;67.30
14585;DHT22;7379;51.506;11.876;2023-04-09T00:21:02;9.20;68.10
14585;DHT22;7379;51.506;11.876;2023-04-09T00:23:28;9.20;67.30
14585;DHT22;7379;51.506;11.876;2023-04-09T00:25:55;9.10;67.20
14585;DHT22;7379;51.506;11.876;2023-04-09T00:28:22;9.20;67.30
14585;DHT22;7379;51.506;11.876;2023-04-09T00:30:50;9.10;67.20
14585;DHT22;7379;51.506;11.876;2023-04-09T00:33:17;9.10;67.20
14585;DHT22;7379;51.506;11.876;2023-04-09T00:35:45;9.10;67.30
14585;DHT22;7379;51.506;11.876;2023-04-09T00:38:12;9.10;67.30
14585;DHT22;7379;51.506;11.876;2023-04-09T00:40:39;9.10;67.20
14585;DHT22;7379;51.506;11.876;2023-04-09T00:43:06;9.10;67.20
14585;DHT22;7379;51.506;11.876;2023-04-09T00:45:33;9.10;67.20
14585;DHT22;7379;51.506;11.876;2023-04-09T00:47:59;9.10;67.20
14585;DHT22;7379;51.506;11.876;2023-04-09T00:50:26;9.10;67.20
14585;DHT22;7379;51.506;11.876;2023-04-09T00:56:17;9.10;67.10
14585;DHT22;7379;51.506;11.876;2023-04-09T00:58:46;9.10;67.10
14585;DHT22;7379;51.506;11.876;2023-04-09T01:01:13;9.00;67.00
14585;DHT22;7379;51.506;11.876;2023-04-09T01:03:40;9.00;67.10
14585;DHT22;7379;51.506;11.876;2023-04-09T01:06:11;9.00;67.10
14585;DHT22;7379;51.506;11.876;2023-04-09T01:08:46;9.00;67.10
14585;DHT22;7379;51.506;11.876;2023-04-09T01:11:29;9.00;67.10
14585;DHT22;7379;51.506;11.876;2023-04-09T01:14:04;9.00;67.00
14585;DHT22;7379;51.506;11.876;2023-04-09T01:16:33;9.00;67.10
14585;DHT22;7379;51.506;11.876;2023-04-09T01:19:08;9.00;67.10
14585;DHT22;7379;51.506;11.876;2023-04-09T01:21:37;8.90;66.90
14585;DHT22;7379;51.506;11.876;2023-04-09T01:24:18;8.90;66.90
14585;DHT22;7379;51.506;11.876;2023-04-09T01:26:57;8.90;66.90
14585;DHT22;7379;51.506;11.876;2023-04-09T01:29:31;8.90;66.90
14585;DHT22;7379;51.506;11.876;2023-04-09T01:31:59;8.90;66.90
14585;DHT22;7379;51.506;11.876;2023-04-09T01:34:28;8.90;67.00
14585;DHT22;7379;51.506;11.876;2023-04-09T01:36:58;8.90;66.90
14585;DHT22;7379;51.506;11.876;2023-04-09T01:39:25;8.90;66.90
14585;DHT22;7379;51.506;11.876;2023-04-09T01:41:53;8.80;66.80
14585;DHT22;7379;51.506;11.876;2023-04-09T01:44:21;8.80;66.80
14585;DHT22;7379;51.506;11.876;2023-04-09T01:46:50;8.80;66.80
14585;DHT22;7379;51.506;11.876;2023-04-09T01:49:18;8.80;66.80
14585;DHT22;7379;51.506;11.876;2023-04-09T01:51:46;8.80;67.50
14585;DHT22;7379;51.506;11.876;2023-04-09T01:54:15;8.80;66.80
14585;DHT22;7379;51.506;11.876;2023-04-09T01:56:43;8.80;66.80
14585;DHT22;7379;51.506;11.876;2023-04-09T01:59:10;8.80;66.80
14585;DHT22;7379;51.506;11.876;2023-04-09T02:01:40;8.80;67.50
14585;DHT22;7379;51.506;11.876;2023-04-09T02:04:21;8.70;66.60
14585;DHT22;7379;51.506;11.876;2023-04-09T02:06:55;8.70;66.60
14585;DHT22;7379;51.506;11.876;2023-04-09T02:09:26;8.70;66.60
14585;DHT22;7379;51.506;11.876;2023-04-09T02:11:55;8.70;66.60
14585;DHT22;7379;51.506;11.876;2023-04-09T02:14:24;8.70;66.60
14585;DHT22;7379;51.506;11.876;2023-04-09T02:16:52;8.70;66.60
14585;DHT22;7379;51.506;11.876;2023-04-09T02:19:21;8.70;66.60
14585;DHT22;7379;51.506;11.876;2023-04-09T02:21:57;8.70;66.70
14585;DHT22;7379;51.506;11.876;2023-04-09T02:24:24;8.70;66.60
14585;DHT22;7379;51.506;11.876;2023-04-09T02:26:50;8.60;66.50
14585;DHT22;7379;51.506;11.876;2023-04-09T02:29:17;8.60;66.50
14585;DHT22;7379;51.506;11.876;2023-04-09T02:31:44;8.60;66.60
14585;DHT22;7379;51.506;11.876;2023-04-09T02:34:11;8.60;66.60
14585;DHT22;7379;51.506;11.876;2023-04-09T02:36:40;8.60;66.50
14585;DHT22;7379;51.506;11.876;2023-04-09T02:39:07;8.60;66.50
14585;DHT22;7379;51.506;11.876;2023-04-09T02:41:33;8.50;66.50
14585;DHT22;7379;51.506;11.876;2023-04-09T02:44:00;8.50;66.50
14585;DHT22;7379;51.506;11.876;2023-04-09T02:46:27;8.50;66.50
14585;DHT22;7379;51.506;11.876;2023-04-09T02:48:54;8.50;66.50
14585;DHT22;7379;51.506;11.876;2023-04-09T02:51:21;8.50;66.50
14585;DHT22;7379;51.506;11.876;2023-04-09T02:53:49;8.50;66.50
14585;DHT22;7379;51.506;11.876;2023-04-09T02:56:16;8.50;66.50
14585;DHT22;7379;51.506;11.876;2023-04-09T02:58:42;8.50;66.50
14585;DHT22;7379;51.506;11.876;2023-04-09T03:01:09;8.40;66.40
14585;DHT22;7379;51.506;11.876;2023-04-09T03:03:36;8.40;66.50
14585;DHT22;7379;51.506;11.876;2023-04-09T03:06:06;8.40;66.40
14585;DHT22;7379;51.506;11.876;2023-04-09T03:08:33;8.40;66.40
14585;DHT22;7379;51.506;11.876;2023-04-09T03:11:01;8.40;66.40
14585;DHT22;7379;51.506;11.876;2023-04-09T03:13:28;8.40;66.40
14585;DHT22;7379;51.506;11.876;2023-04-09T03:15:55;8.40;66.50
14585;DHT22;7379;51.506;11.876;2023-04-09T03:18:22;8.30;66.30
14585;DHT22;7379;51.506;11.876;2023-04-09T03:20:49;8.30;67.00
14585;DHT22;7379;51.506;11.876;2023-04-09T03:23:16;8.30;66.30
14585;DHT22;7379;51.506;11.876;2023-04-09T03:25:43;8.30;66.30
14585;DHT22;7379;51.506;11.876;2023-04-09T03:28:11;8.30;66.30
14585;DHT22;7379;51.506;11.876;2023-04-09T03:30:38;8.30;66.20
14585;DHT22;7379;51.506;11.876;2023-04-09T03:33:04;8.30;66.30
14585;DHT22;7379;51.506;11.876;2023-04-09T03:35:31;8.20;66.20
14585;DHT22;7379;51.506;11.876;2023-04-09T03:37:58;8.20;66.10
14585;DHT22;7379;51.506;11.876;2023-04-09T03:40:25;8.20;66.10
14585;DHT22;7379;51.506;11.876;2023-04-09T03:42:52;8.20;66.20
14585;DHT22;7379;51.506;11.876;2023-04-09T03:45:20;8.20;66.20
14585;DHT22;7379;51.506;11.876;2023-04-09T03:47:47;8.20;66.20
14585;DHT22;7379;51.506;11.876;2023-04-09T03:50:13;8.20;66.20
14585;DHT22;7379;51.506;11.876;2023-04-09T03:52:40;8.20;66.10
14585;DHT22;7379;51.506;11.876;2023-04-09T03:55:08;8.10;66.00
14585;DHT22;7379;51.506;11.876;2023-04-09T03:57:35;8.10;66.00
14585;DHT22;7379;51.506;11.876;2023-04-09T04:00:03;8.10;66.10
14585;DHT22;7379;51.506;11.876;2023-04-09T04:02:31;8.10;66.00
14585;DHT22;7379;51.506;11.876;2023-04-09T04:04:59;8.10;66.00
14585;DHT22;7379;51.506;11.876;2023-04-09T04:07:26;8.10;66.00
14585;DHT22;7379;51.506;11.876;2023-04-09T04:09:53;8.10;66.00
14585;DHT22;7379;51.506;11.876;2023-04-09T04:12:19;8.10;66.10
14585;DHT22;7379;51.506;11.876;2023-04-09T04:14:46;8.10;66.10
14585;DHT22;7379;51.506;11.876;2023-04-09T04:17:13;8.00;66.00
14585;DHT22;7379;51.506;11.876;2023-04-09T04:19:42;8.00;66.80
14585;DHT22;7379;51.506;11.876;2023-04-09T04:22:08;8.00;66.00
14585;DHT22;7379;51.506;11.876;2023-04-09T04:24:35;8.00;66.00
14585;DHT22;7379;51.506;11.876;2023-04-09T04:27:03;8.00;66.00
14585;DHT22;7379;51.506;11.876;2023-04-09T04:29:29;8.00;66.10
14585;DHT22;7379;51.506;11.876;2023-04-09T04:31:56;8.00;66.10
14585;DHT22;7379;51.506;11.876;2023-04-09T04:34:23;7.90;66.00
14585;DHT22;7379;51.506;11.876;2023-04-09T04:36:51;7.90;66.10
14585;DHT22;7379;51.506;11.876;2023-04-09T04:39:18;7.90;66.10
14585;DHT22;7379;51.506;11.876;2023-04-09T04:41:45;7.90;66.10
14585;DHT22;7379;51.506;11.876;2023-04-09T04:44:12;7.90;66.20
14585;DHT22;7379;51.506;11.876;2023-04-09T04:46:38;7.90;66.20
14585;DHT22;7379;51.506;11.876;2023-04-09T04:49:05;7.90;66.20
14585;DHT22;7379;51.506;11.876;2023-04-09T04:51:32;7.90;66.20
14585;DHT22;7379;51.506;11.876;2023-04-09T04:54:01;7.80;66.20
14585;DHT22;7379;51.506;11.876;2023-04-09T04:56:28;7.80;66.20
14585;DHT22;7379;51.506;11.876;2023-04-09T04:58:54;7.80;66.20
14585;DHT22;7379;51.506;11.876;2023-04-09T05:01:21;7.80;66.20
14585;DHT22;7379;51.506;11.876;2023-04-09T05:03:48;7.80;66.90
14585;DHT22;7379;51.506;11.876;2023-04-09T05:06:15;7.80;66.20
14585;DHT22;7379;51.506;11.876;2023-04-09T05:08:42;7.80;66.20
14585;DHT22;7379;51.506;11.876;2023-04-09T05:11:11;7.80;66.30
14585;DHT22;7379;51.506;11.876;2023-04-09T05:13:39;7.80;66.30
14585;DHT22;7379;51.506;11.876;2023-04-09T05:16:06;7.70;66.20
14585;DHT22;7379;51.506;11.876;2023-04-09T05:18:33;7.70;66.30
14585;DHT22;7379;51.506;11.876;2023-04-09T05:21:01;7.70;66.30
14585;DHT22;7379;51.506;11.876;2023-04-09T05:23:27;7.70;66.30
14585;DHT22;7379;51.506;11.876;2023-04-09T05:25:54;7.70;66.40
14585;DHT22;7379;51.506;11.876;2023-04-09T05:28:22;7.70;66.50
14585;DHT22;7379;51.506;11.876;2023-04-09T05:30:49;7.70;66.50
14585;DHT22;7379;51.506;11.876;2023-04-09T05:33:16;7.70;66.50
14585;DHT22;7379;51.506;11.876;2023-04-09T05:35:43;7.70;66.50
14585;DHT22;7379;51.506;11.876;2023-04-09T05:38:10;7.70;66.50
14585;DHT22;7379;51.506;11.876;2023-04-09T05:40:38;7.70;66.40
14585;DHT22;7379;51.506;11.876;2023-04-09T05:43:05;7.60;66.30
14585;DHT22;7379;51.506;11.876;2023-04-09T05:45:33;7.60;66.30
14585;DHT22;7379;51.506;11.876;2023-04-09T05:48:00;7.60;66.40
14585;DHT22;7379;51.506;11.876;2023-04-09T05:50:27;7.60;66.30
14585;DHT22;7379;51.506;11.876;2023-04-09T05:52:54;7.60;66.40
14585;DHT22;7379;51.506;11.876;2023-04-09T05:55:21;7.60;66.40
14585;DHT22;7379;51.506;11.876;2023-04-09T05:57:48;7.60;66.30
14585;DHT22;7379;51.506;11.876;2023-04-09T06:00:17;7.60;66.30
14585;DHT22;7379;51.506;11.876;2023-04-09T06:02:45;7.60;66.40
14585;DHT22;7379;51.506;11.876;2023-04-09T06:05:12;7.60;66.30
14585;DHT22;7379;51.506;11.876;2023-04-09T06:07:39;7.60;66.40
14585;DHT22;7379;51.506;11.876;2023-04-09T06:10:07;7.60;66.40
14585;DHT22;7379;51.506;11.876;2023-04-09T06:12:34;7.60;66.40
14585;DHT22;7379;51.506;11.876;2023-04-09T06:15:02;7.60;66.40
14585;DHT22;7379;51.506;11.876;2023-04-09T06:17:29;7.60;66.40
14585;DHT22;7379;51.506;11.876;2023-04-09T06:19:57;7.60;66.50
14585;DHT22;7379;51.506;11.876;2023-04-09T06:22:24;7.60;66.50
14585;DHT22;7379;51.506;11.876;2023-04-09T06:24:51;7.60;66.50
14585;DHT22;7379;51.506;11.876;2023-04-09T06:27:17;7.60;66.50
14585;DHT22;7379;51.506;11.876;2023-04-09T06:29:46;7.60;66.50
14585;DHT22;7379;51.506;11.876;2023-04-09T06:32:13;7.60;66.60
14585;DHT22;7379;51.506;11.876;2023-04-09T06:34:40;7.60;66.60
14585;DHT22;7379;51.506;11.876;2023-04-09T06:37:08;7.60;66.70
14585;DHT22;7379;51.506;11.876;2023-04-09T06:39:35;7.50;66.70
14585;DHT22;7379;51.506;11.876;2023-04-09T06:42:01;7.50;66.70
14585;DHT22;7379;51.506;11.876;2023-04-09T06:44:29;7.60;66.90
14585;DHT22;7379;51.506;11.876;2023-04-09T06:46:56;7.60;67.10
14585;DHT22;7379;51.506;11.876;2023-04-09T06:49:23;7.60;67.00
14585;DHT22;7379;51.506;11.876;2023-04-09T06:51:49;7.70;67.10
14585;DHT22;7379;51.506;11.876;2023-04-09T06:54:19;7.70;67.00
14585;DHT22;7379;51.506;11.876;2023-04-09T06:56:46;7.80;67.00
14585;DHT22;7379;51.506;11.876;2023-04-09T06:59:13;7.90;67.00
14585;DHT22;7379;51.506;11.876;2023-04-09T07:01:40;7.90;66.80
14585;DHT22;7379;51.506;11.876;2023-04-09T07:04:07;7.90;66.80
14585;DHT22;7379;51.506;11.876;2023-04-09T07:06:34;8.00;66.70
14585;DHT22;7379;51.506;11.876;2023-04-09T07:09:01;8.00;66.60
14585;DHT22;7379;51.506;11.876;2023-04-09T07:11:29;8.10;66.80
14585;DHT22;7379;51.506;11.876;2023-04-09T07:13:57;8.10;66.80
14585;DHT22;7379;51.506;11.876;2023-04-09T07:16:23;8.10;66.70
14585;DHT22;7379;51.506;11.876;2023-04-09T07:18:50;8.10;66.70
14585;DHT22;7379;51.506;11.876;2023-04-09T07:21:17;8.20;66.80
14585;DHT22;7379;51.506;11.876;2023-04-09T07:23:44;8.20;66.80
14585;DHT22;7379;51.506;11.876;2023-04-09T07:26:11;8.20;66.80
14585;DHT22;7379;51.506;11.876;2023-04-09T07:28:39;8.20;66.90
14585;DHT22;7379;51.506;11.876;2023-04-09T07:31:06;8.20;66.80
14585;DHT22;7379;51.506;11.876;2023-04-09T07:33:33;8.30;66.90
14585;DHT22;7379;51.506;11.876;2023-04-09T07:36:00;8.30;66.90
14585;DHT22;7379;51.506;11.876;2023-04-09T07:38:28;8.30;66.90
14585;DHT22;7379;51.506;11.876;2023-04-09T07:40:55;8.30;66.80
14585;DHT22;7379;51.506;11.876;2023-04-09T07:43:22;8.40;66.80
14585;DHT22;7379;51.506;11.876;2023-04-09T07:45:50;8.40;66.80
14585;DHT22;7379;51.506;11.876;2023-04-09T07:48:17;8.40;66.70
14585;DHT22;7379;51.506;11.876;2023-04-09T07:50:43;8.40;66.70
14585;DHT22;7379;51.506;11.876;2023-04-09T07:53:10;8.40;66.70
14585;DHT22;7379;51.506;11.876;2023-04-09T07:55:37;8.40;66.70
14585;DHT22;7379;51.506;11.876;2023-04-09T07:58:04;8.40;66.70
14585;DHT22;7379;51.506;11.876;2023-04-09T08:00:31;8.40;66.70
14585;DHT22;7379;51.506;11.876;2023-04-09T08:03:00;8.40;66.80
14585;DHT22;7379;51.506;11.876;2023-04-09T08:05:28;8.50;67.10
14585;DHT22;7379;51.506;11.876;2023-04-09T08:07:55;8.50;66.90
14585;DHT22;7379;51.506;11.876;2023-04-09T08:10:22;8.50;66.90
14585;DHT22;7379;51.506;11.876;2023-04-09T08:12:48;8.50;67.00
14585;DHT22;7379;51.506;11.876;2023-04-09T08:15:15;8.50;67.00
14585;DHT22;7379;51.506;11.876;2023-04-09T08:17:42;8.50;67.10
14585;DHT22;7379;51.506;11.876;2023-04-09T08:20:12;8.60;67.20
14585;DHT22;7379;51.506;11.876;2023-04-09T08:22:38;8.50;67.20
14585;DHT22;7379;51.506;11.876;2023-04-09T08:25:07;8.60;67.20
14585;DHT22;7379;51.506;11.876;2023-04-09T08:27:34;8.60;67.10
14585;DHT22;7379;51.506;11.876;2023-04-09T08:30:01;8.60;67.10
14585;DHT22;7379;51.506;11.876;2023-04-09T08:32:28;8.60;67.10
14585;DHT22;7379;51.506;11.876;2023-04-09T08:34:55;8.60;67.20
14585;DHT22;7379;51.506;11.876;2023-04-09T08:37:24;8.60;67.20
14585;DHT22;7379;51.506;11.876;2023-04-09T08:39:51;8.60;67.30
14585;DHT22;7379;51.506;11.876;2023-04-09T08:42:18;8.60;67.50
14585;DHT22;7379;51.506;11.876;2023-04-09T08:44:49;8.60;67.40
14585;DHT22;7379;51.506;11.876;2023-04-09T08:47:16;8.50;67.30
14585;DHT22;7379;51.506;11.876;2023-04-09T08:49:43;8.50;67.50
14585;DHT22;7379;51.506;11.876;2023-04-09T08:52:10;8.50;67.50
14585;DHT22;7379;51.506;11.876;2023-04-09T08:54:38;8.50;67.60
14585;DHT22;7379;51.506;11.876;2023-04-09T08:57:05;8.50;67.60
14585;DHT22;7379;51.506;11.876;2023-04-09T08:59:32;8.60;68.40
14585;DHT22;7379;51.506;11.876;2023-04-09T09:02:07;8.50;67.60
14585;DHT22;7379;51.506;11.876;2023-04-09T09:04:44;8.50;67.60
14585;DHT22;7379;51.506;11.876;2023-04-09T09:07:12;8.50;67.70
14585;DHT22;7379;51.506;11.876;2023-04-09T09:09:53;8.50;67.90
14585;DHT22;7379;51.506;11.876;2023-04-09T09:12:35;8.50;68.10
14585;DHT22;7379;51.506;11.876;2023-04-09T09:15:03;8.50;68.20
14585;DHT22;7379;51.506;11.876;2023-04-09T09:17:30;8.50;68.20
14585;DHT22;7379;51.506;11.876;2023-04-09T09:19:57;8.50;68.20
14585;DHT22;7379;51.506;11.876;2023-04-09T09:22:24;8.40;68.10
14585;DHT22;7379;51.506;11.876;2023-04-09T09:24:52;8.40;68.30
14585;DHT22;7379;51.506;11.876;2023-04-09T09:27:35;8.50;68.50
14585;DHT22;7379;51.506;11.876;2023-04-09T09:30:07;8.40;68.50
14585;DHT22;7379;51.506;11.876;2023-04-09T09:32:35;8.40;68.60
14585;DHT22;7379;51.506;11.876;2023-04-09T09:35:03;8.50;68.60
14585;DHT22;7379;51.506;11.876;2023-04-09T09:37:31;8.50;68.80
14585;DHT22;7379;51.506;11.876;2023-04-09T09:40:00;8.50;68.70
14585;DHT22;7379;51.506;11.876;2023-04-09T09:42:27;8.50;68.60
14585;DHT22;7379;51.506;11.876;2023-04-09T09:44:54;8.50;68.50
14585;DHT22;7379;51.506;11.876;2023-04-09T09:47:22;8.50;68.50
14585;DHT22;7379;51.506;11.876;2023-04-09T09:49:50;8.50;68.50
14585;DHT22;7379;51.506;11.876;2023-04-09T09:52:23;8.50;68.70
14585;DHT22;7379;51.506;11.876;2023-04-09T09:54:51;8.50;68.70
14585;DHT22;7379;51.506;11.876;2023-04-09T09:57:20;8.50;68.60
14585;DHT22;7379;51.506;11.876;2023-04-09T09:59:52;8.50;68.60
14585;DHT22;7379;51.506;11.876;2023-04-09T10:02:22;8.50;68.50
14585;DHT22;7379;51.506;11.876;2023-04-09T10:04:51;8.50;68.50
14585;DHT22;7379;51.506;11.876;2023-04-09T10:07:18;8.50;68.40
14585;DHT22;7379;51.506;11.876;2023-04-09T10:09:48;8.50;68.40
14585;DHT22;7379;51.506;11.876;2023-04-09T10:12:16;8.50;68.40
14585;DHT22;7379;51.506;11.876;2023-04-09T10:14:45;8.50;68.50
14585;DHT22;7379;51.506;11.876;2023-04-09T10:17:12;8.50;68.40
14585;DHT22;7379;51.506;11.876;2023-04-09T10:19:52;8.50;68.20
14585;DHT22;7379;51.506;11.876;2023-04-09T10:22:22;8.50;68.40
14585;DHT22;7379;51.506;11.876;2023-04-09T10:24:52;8.60;68.70
14585;DHT22;7379;51.506;11.876;2023-04-09T10:30:32;8.60;68.90
14585;DHT22;7379;51.506;11.876;2023-04-09T10:33:09;8.60;69.20
14585;DHT22;7379;51.506;11.876;2023-04-09T10:35:36;8.70;69.20
14585;DHT22;7379;51.506;11.876;2023-04-09T10:38:06;8.70;69.00
14585;DHT22;7379;51.506;11.876;2023-04-09T10:40:34;8.70;68.90
14585;DHT22;7379;51.506;11.876;2023-04-09T10:43:02;8.70;69.30
14585;DHT22;7379;51.506;11.876;2023-04-09T10:45:39;8.70;69.10
14585;DHT22;7379;51.506;11.876;2023-04-09T10:48:10;8.70;69.50
14585;DHT22;7379;51.506;11.876;2023-04-09T10:50:38;8.70;70.10
14585;DHT22;7379;51.506;11.876;2023-04-09T10:53:20;8.80;69.20
14585;DHT22;7379;51.506;11.876;2023-04-09T10:55:48;8.80;69.40
14585;DHT22;7379;51.506;11.876;2023-04-09T10:58:15;8.80;69.30
14585;DHT22;7379;51.506;11.876;2023-04-09T11:00:45;8.90;69.70
14585;DHT22;7379;51.506;11.876;2023-04-09T11:03:22;8.90;69.70
14585;DHT22;7379;51.506;11.876;2023-04-09T11:05:53;9.00;69.60
14585;DHT22;7379;51.506;11.876;2023-04-09T11:08:20;9.00;69.70
14585;DHT22;7379;51.506;11.876;2023-04-09T11:10:47;9.10;69.60
14585;DHT22;7379;51.506;11.876;2023-04-09T11:13:15;9.10;69.10
14585;DHT22;7379;51.506;11.876;2023-04-09T11:15:44;9.10;69.30
14585;DHT22;7379;51.506;11.876;2023-04-09T11:18:14;9.10;69.10
14585;DHT22;7379;51.506;11.876;2023-04-09T11:20:42;9.20;69.00
14585;DHT22;7379;51.506;11.876;2023-04-09T11:23:09;9.20;68.80
14585;DHT22;7379;51.506;11.876;2023-04-09T11:25:37;9.20;68.80
14585;DHT22;7379;51.506;11.876;2023-04-09T11:28:05;9.20;68.60
14585;DHT22;7379;51.506;11.876;2023-04-09T11:30:33;9.20;68.50
14585;DHT22;7379;51.506;11.876;2023-04-09T11:33:01;9.20;68.20
14585;DHT22;7379;51.506;11.876;2023-04-09T11:35:28;9.20;68.20
14585;DHT22;7379;51.506;11.876;2023-04-09T11:37:55;9.20;68.10
14585;DHT22;7379;51.506;11.876;2023-04-09T11:40:23;9.20;68.20
14585;DHT22;7379;51.506;11.876;2023-04-09T11:42:51;9.20;67.90
14585;DHT22;7379;51.506;11.876;2023-04-09T11:45:20;9.30;68.00
14585;DHT22;7379;51.506;11.876;2023-04-09T11:47:48;9.30;67.70
14585;DHT22;7379;51.506;11.876;2023-04-09T11:50:16;9.50;68.70
14585;DHT22;7379;51.506;11.876;2023-04-09T11:52:44;9.50;67.30
14585;DHT22;7379;51.506;11.876;2023-04-09T11:55:21;9.50;67.20
14585;DHT22;7379;51.506;11.876;2023-04-09T11:57:51;9.50;67.20
14585;DHT22;7379;51.506;11.876;2023-04-09T12:00:18;9.60;67.00
14585;DHT22;7379;51.506;11.876;2023-04-09T12:02:46;9.60;68.00
14585;DHT22;7379;51.506;11.876;2023-04-09T12:05:22;9.70;66.80
14585;DHT22;7379;51.506;11.876;2023-04-09T12:07:50;9.80;65.90
14585;DHT22;7379;51.506;11.876;2023-04-09T12:10:17;9.80;66.80
14585;DHT22;7379;51.506;11.876;2023-04-09T12:12:45;9.90;66.20
14585;DHT22;7379;51.506;11.876;2023-04-09T12:15:18;9.90;65.60
14585;DHT22;7379;51.506;11.876;2023-04-09T12:17:48;10.00;64.10
14585;DHT22;7379;51.506;11.876;2023-04-09T12:20:27;10.10;63.90
14585;DHT22;7379;51.506;11.876;2023-04-09T12:22:55;10.10;63.70
14585;DHT22;7379;51.506;11.876;2023-04-09T12:25:22;10.20;63.30
14585;DHT22;7379;51.506;11.876;2023-04-09T12:27:48;10.10;63.70
14585;DHT22;7379;51.506;11.876;2023-04-09T12:30:15;10.10;63.60
14585;DHT22;7379;51.506;11.876;2023-04-09T12:32:42;10.10;63.60
14585;DHT22;7379;51.506;11.876;2023-04-09T12:35:10;10.00;64.30
14585;DHT22;7379;51.506;11.876;2023-04-09T12:37:38;10.30;63.40
14585;DHT22;7379;51.506;11.876;2023-04-09T12:40:06;10.40;62.80
14585;DHT22;7379;51.506;11.876;2023-04-09T12:42:33;10.60;62.40
14585;DHT22;7379;51.506;11.876;2023-04-09T12:45:00;10.90;61.40
14585;DHT22;7379;51.506;11.876;2023-04-09T12:47:27;11.00;60.80
14585;DHT22;7379;51.506;11.876;2023-04-09T12:49:54;11.10;60.40
14585;DHT22;7379;51.506;11.876;2023-04-09T12:52:21;10.90;60.70
14585;DHT22;7379;51.506;11.876;2023-04-09T12:54:51;11.20;59.50
14585;DHT22;7379;51.506;11.876;2023-04-09T12:57:18;11.40;58.80
14585;DHT22;7379;51.506;11.876;2023-04-09T12:59:44;11.70;58.20
14585;DHT22;7379;51.506;11.876;2023-04-09T13:02:11;11.80;57.80
14585;DHT22;7379;51.506;11.876;2023-04-09T13:04:38;11.80;58.00
14585;DHT22;7379;51.506;11.876;2023-04-09T13:07:05;11.90;58.10
14585;DHT22;7379;51.506;11.876;2023-04-09T13:09:32;11.90;58.00
14585;DHT22;7379;51.506;11.876;2023-04-09T13:12:01;11.80;58.10
14585;DHT22;7379;51.506;11.876;2023-04-09T13:14:28;11.60;58.50
14585;DHT22;7379;51.506;11.876;2023-04-09T13:16:55;11.50;58.90
14585;DHT22;7379;51.506;11.876;2023-04-09T13:19:22;11.70;58.20
14585;DHT22;7379;51.506;11.876;2023-04-09T13:21:49;11.80;58.20
14585;DHT22;7379;51.506;11.876;2023-04-09T13:24:15;11.80;58.30
14585;DHT22;7379;51.506;11.876;2023-04-09T13:26:42;11.70;58.50
14585;DHT22;7379;51.506;11.876;2023-04-09T13:29:10;11.70;59.00
14585;DHT22;7379;51.506;11.876;2023-04-09T13:31:37;11.60;59.20
14585;DHT22;7379;51.506;11.876;2023-04-09T13:34:04;11.80;58.50
14585;DHT22;7379;51.506;11.876;2023-04-09T13:36:33;12.00;58.10
14585;DHT22;7379;51.506;11.876;2023-04-09T13:39:00;12.00;58.00
14585;DHT22;7379;51.506;11.876;2023-04-09T13:41:30;11.80;58.20
14585;DHT22;7379;51.506;11.876;2023-04-09T13:43:57;11.70;58.60
14585;DHT22;7379;51.506;11.876;2023-04-09T13:46:25;11.80;57.80
14585;DHT22;7379;51.506;11.876;2023-04-09T13:48:52;11.90;57.80
14585;DHT22;7379;51.506;11.876;2023-04-09T13:51:20;11.80;57.60
14585;DHT22;7379;51.506;11.876;2023-04-09T13:53:47;11.70;57.90
14585;DHT22;7379;51.506;11.876;2023-04-09T13:56:14;11.70;58.20
14585;DHT22;7379;51.506;11.876;2023-04-09T13:58:41;11.60;58.10
14585;DHT22;7379;51.506;11.876;2023-04-09T14:01:08;11.60;58.10
14585;DHT22;7379;51.506;11.876;2023-04-09T14:03:37;11.50;58.20
14585;DHT22;7379;51.506;11.876;2023-04-09T14:06:05;11.50;58.30
14585;DHT22;7379;51.506;11.876;2023-04-09T14:08:32;11.60;58.10
14585;DHT22;7379;51.506;11.876;2023-04-09T14:10:58;11.60;58.10
14585;DHT22;7379;51.506;11.876;2023-04-09T14:13:26;11.70;58.40
14585;DHT22;7379;51.506;11.876;2023-04-09T14:15:52;11.80;58.80
14585;DHT22;7379;51.506;11.876;2023-04-09T14:18:19;11.90;58.10
14585;DHT22;7379;51.506;11.876;2023-04-09T14:20:48;12.00;57.90
14585;DHT22;7379;51.506;11.876;2023-04-09T14:23:14;12.00;58.10
14585;DHT22;7379;51.506;11.876;2023-04-09T14:25:41;12.00;57.90
14585;DHT22;7379;51.506;11.876;2023-04-09T14:28:08;12.10;57.40
14585;DHT22;7379;51.506;11.876;2023-04-09T14:30:35;12.10;57.70
14585;DHT22;7379;51.506;11.876;2023-04-09T14:33:02;12.10;57.90
14585;DHT22;7379;51.506;11.876;2023-04-09T14:35:29;12.20;58.30
14585;DHT22;7379;51.506;11.876;2023-04-09T14:37:58;12.50;57.50
14585;DHT22;7379;51.506;11.876;2023-04-09T14:40:26;12.60;57.40
14585;DHT22;7379;51.506;11.876;2023-04-09T14:42:52;12.60;57.10
14585;DHT22;7379;51.506;11.876;2023-04-09T14:45:19;12.90;56.70
14585;DHT22;7379;51.506;11.876;2023-04-09T14:47:46;13.10;56.40
14585;DHT22;7379;51.506;11.876;2023-04-09T14:50:13;13.50;55.40
14585;DHT22;7379;51.506;11.876;2023-04-09T14:52:40;13.50;55.30
14585;DHT22;7379;51.506;11.876;2023-04-09T14:55:09;13.40;55.30
14585;DHT22;7379;51.506;11.876;2023-04-09T14:57:37;13.30;55.70
14585;DHT22;7379;51.506;11.876;2023-04-09T15:00:06;13.20;55.80
14585;DHT22;7379;51.506;11.876;2023-04-09T15:02:33;13.30;55.70
14585;DHT22;7379;51.506;11.876;2023-04-09T15:05:00;13.40;55.40
14585;DHT22;7379;51.506;11.876;2023-04-09T15:07:28;13.40;55.40
14585;DHT22;7379;51.506;11.876;2023-04-09T15:09:56;13.70;54.90
14585;DHT22;7379;51.506;11.876;2023-04-09T15:14:53;14.00;54.10
14585;DHT22;7379;51.506;11.876;2023-04-09T15:17:20;13.90;54.30
14585;DHT22;7379;51.506;11.876;2023-04-09T15:19:47;13.90;55.10
14585;DHT22;7379;51.506;11.876;2023-04-09T15:22:14;14.00;54.00
14585;DHT22;7379;51.506;11.876;2023-04-09T15:24:40;14.20;53.90
14585;DHT22;7379;51.506;11.876;2023-04-09T15:27:08;14.10;54.00
14585;DHT22;7379;51.506;11.876;2023-04-09T15:29:36;14.00;54.50
14585;DHT22;7379;51.506;11.876;2023-04-09T15:32:03;14.10;54.30
14585;DHT22;7379;51.506;11.876;2023-04-09T15:34:29;14.10;54.20
14585;DHT22;7379;51.506;11.876;2023-04-09T15:36:56;14.00;54.40
14585;DHT22;7379;51.506;11.876;2023-04-09T15:39:23;14.00;54.30
14585;DHT22;7379;51.506;11.876;2023-04-09T15:41:52;13.90;54.60
14585;DHT22;7379;51.506;11.876;2023-04-09T15:44:20;13.90;54.90
14585;DHT22;7379;51.506;11.876;2023-04-09T15:46:48;13.90;54.90
14585;DHT22;7379;51.506;11.876;2023-04-09T15:49:15;13.80;54.90
14585;DHT22;7379;51.506;11.876;2023-04-09T15:51:42;14.00;54.40
14585;DHT22;7379;51.506;11.876;2023-04-09T15:54:09;13.90;55.00
14585;DHT22;7379;51.506;11.876;2023-04-09T15:56:36;13.90;54.50